createdAt,value
2022-08-16T00:00:04.366Z,4.95
2022-08-16T00:02:35.763Z,9.00
2022-08-16T00:05:08.690Z,11.25
2022-08-16T00:07:39.245Z,6.32
2022-08-16T00:10:21.031Z,3.40
2022-08-16T00:12:51.090Z,2.28
2022-08-16T00:15:25.722Z,1.92
2022-08-16T00:18:16.787Z,2.42
2022-08-16T00:20:48.926Z,5.60
2022-08-16T00:23:20.138Z,6.80
2022-08-16T00:26:36.074Z,4.60
2022-08-16T00:28:54.597Z,4.03
2022-08-16T00:31:24.498Z,3.40
2022-08-16T00:33:54.208Z,3.65
2022-08-16T00:36:23.465Z,4.15
2022-08-16T00:38:53.650Z,4.05
2022-08-16T00:41:26.321Z,3.35
2022-08-16T00:43:56.712Z,9.65
2022-08-16T00:46:37.746Z,7.13
2022-08-16T00:49:22.883Z,5.25
2022-08-16T00:51:57.347Z,5.40
2022-08-16T00:54:31.334Z,5.20
2022-08-16T00:57:04.698Z,6.75
2022-08-16T00:59:37.194Z,14.27
2022-08-16T01:02:31.811Z,14.43
2022-08-16T01:05:10.868Z,28.55
2022-08-16T01:07:52.007Z,11.88
2022-08-16T01:10:31.386Z,3.72
2022-08-16T01:13:07.999Z,3.05
2022-08-16T01:15:43.843Z,2.72
2022-08-16T01:18:38.861Z,3.15
2022-08-16T01:21:39.970Z,3.53
2022-08-16T01:24:53.417Z,4.10
2022-08-16T01:27:28.591Z,3.50
2022-08-16T01:30:26.211Z,4.47
2022-08-16T01:33:14.165Z,3.60
2022-08-16T01:36:12.122Z,3.85
2022-08-16T01:38:53.198Z,4.93
2022-08-16T01:41:32.158Z,5.82
2022-08-16T01:44:01.922Z,3.78
2022-08-16T01:46:39.088Z,2.88
2022-08-16T01:49:18.396Z,2.58
2022-08-16T01:51:53.883Z,2.38
2022-08-16T01:54:30.746Z,2.75
2022-08-16T01:57:01.858Z,3.00
2022-08-16T01:59:32.435Z,2.70
2022-08-16T02:02:02.388Z,2.83
2022-08-16T02:04:49.371Z,2.90
2022-08-16T02:07:23.987Z,2.30
2022-08-16T02:09:57.243Z,2.58
2022-08-16T02:12:49.794Z,5.75
2022-08-16T02:15:24.926Z,11.57
2022-08-16T02:17:58.561Z,5.38
2022-08-16T02:23:00.078Z,12.77
2022-08-16T02:25:51.077Z,3.00
2022-08-16T02:28:23.629Z,3.28
2022-08-16T02:30:55.383Z,2.70
2022-08-16T02:33:44.380Z,2.97
2022-08-16T02:36:42.433Z,3.00
2022-08-16T02:39:08.804Z,2.63
2022-08-16T02:41:41.284Z,2.90
2022-08-16T02:44:13.599Z,2.67
2022-08-16T02:46:50.639Z,3.50
2022-08-16T02:49:32.212Z,2.92
2022-08-16T02:52:24.488Z,3.25
2022-08-16T02:54:55.731Z,4.75
2022-08-16T02:57:25.349Z,3.35
2022-08-16T02:59:55.143Z,3.50
2022-08-16T03:02:35.875Z,2.90
2022-08-16T03:05:06.927Z,2.85
2022-08-16T03:07:37.267Z,3.33
2022-08-16T03:10:10.036Z,3.30
2022-08-16T03:12:56.070Z,3.30
2022-08-16T03:15:26.201Z,2.92
2022-08-16T03:17:58.006Z,2.92
2022-08-16T03:20:32.379Z,3.22
2022-08-16T03:23:04.049Z,2.92
2022-08-16T03:25:43.344Z,2.95
2022-08-16T03:28:17.019Z,3.10
2022-08-16T03:30:47.496Z,2.75
2022-08-16T03:33:17.334Z,3.00
2022-08-16T03:35:47.851Z,3.28
2022-08-16T03:38:33.620Z,3.15
2022-08-16T03:41:14.308Z,2.90
2022-08-16T03:43:56.504Z,3.83
2022-08-16T03:46:48.142Z,2.58
2022-08-16T03:49:16.255Z,2.60
2022-08-16T03:51:46.174Z,2.80
2022-08-16T03:54:15.771Z,2.70
2022-08-16T03:56:57.325Z,2.28
2022-08-16T03:59:29.681Z,2.20
2022-08-16T04:02:01.715Z,2.70
2022-08-16T04:04:33.888Z,2.97
2022-08-16T04:07:05.770Z,3.40
2022-08-16T04:09:37.894Z,3.20
2022-08-16T04:12:11.159Z,3.20
2022-08-16T04:14:58.347Z,3.33
2022-08-16T04:17:28.889Z,3.03
2022-08-16T04:19:59.926Z,2.65
2022-08-16T04:22:29.632Z,2.53
2022-08-16T04:24:59.694Z,2.38
2022-08-16T04:27:31.723Z,2.22
2022-08-16T04:30:03.676Z,2.80
2022-08-16T04:38:50.066Z,2.97
2022-08-16T04:41:32.969Z,2.72
2022-08-16T04:44:32.308Z,2.67
2022-08-16T04:47:02.866Z,2.65
2022-08-16T04:49:43.801Z,2.50
2022-08-16T04:52:34.518Z,2.30
2022-08-16T04:55:08.399Z,2.97
2022-08-16T04:57:41.408Z,2.63
2022-08-16T05:00:32.492Z,2.60
2022-08-16T05:03:08.961Z,2.80
2022-08-16T05:05:45.402Z,3.00
2022-08-16T05:08:29.428Z,1.88
2022-08-16T05:11:05.548Z,2.00
2022-08-16T05:13:40.898Z,2.50
2022-08-16T05:16:19.791Z,2.47
2022-08-16T05:18:52.411Z,2.38
2022-08-16T05:21:22.999Z,2.03
2022-08-16T05:23:58.783Z,2.17
2022-08-16T05:26:32.622Z,1.95
2022-08-16T05:29:04.466Z,2.70
2022-08-16T05:31:35.105Z,2.40
2022-08-16T05:34:19.429Z,2.42
2022-08-16T05:36:52.156Z,2.25
2022-08-16T05:39:22.408Z,1.83
2022-08-16T05:41:53.080Z,2.10
2022-08-16T05:44:25.840Z,2.00
2022-08-16T05:49:39.424Z,2.30
2022-08-16T05:52:17.423Z,1.85
2022-08-16T05:55:00.970Z,1.75
2022-08-16T05:57:34.536Z,1.85
2022-08-16T06:00:09.876Z,2.28
2022-08-16T06:02:39.658Z,2.20
2022-08-16T06:05:10.743Z,2.03
2022-08-16T06:07:41.210Z,2.40
2022-08-16T06:10:11.714Z,2.25
2022-08-16T06:12:42.107Z,2.13
2022-08-16T06:15:16.634Z,2.20
2022-08-16T06:17:51.680Z,2.05
2022-08-16T06:20:34.673Z,2.25
2022-08-16T06:23:11.543Z,2.85
2022-08-16T06:25:52.972Z,2.95
2022-08-16T06:28:34.744Z,2.28
2022-08-16T06:31:11.920Z,2.10
2022-08-16T06:33:44.977Z,2.60
2022-08-16T06:36:15.688Z,2.45
2022-08-16T06:38:52.278Z,3.00
2022-08-16T06:41:27.431Z,2.40
2022-08-16T06:43:57.990Z,2.38
2022-08-16T06:46:35.715Z,2.90
2022-08-16T06:49:17.826Z,3.30
2022-08-16T06:51:48.819Z,2.50
2022-08-16T06:54:18.770Z,2.50
2022-08-16T06:56:52.316Z,2.53
2022-08-16T06:59:25.980Z,2.35
2022-08-16T07:01:58.234Z,2.58
2022-08-16T07:04:33.005Z,2.20
2022-08-16T07:07:09.814Z,2.13
2022-08-16T07:09:39.692Z,2.00
2022-08-16T07:12:09.735Z,1.45
2022-08-16T07:14:39.959Z,1.63
2022-08-16T07:17:12.676Z,1.85
2022-08-16T07:20:03.213Z,1.88
2022-08-16T07:22:37.014Z,1.70
2022-08-16T07:25:15.970Z,1.85
2022-08-16T07:27:47.125Z,2.05
2022-08-16T07:30:45.055Z,1.98
2022-08-16T07:33:08.627Z,1.92
2022-08-16T07:35:44.364Z,1.75
2022-08-16T07:38:17.251Z,1.60
2022-08-16T07:40:59.780Z,1.55
2022-08-16T07:43:30.687Z,1.60
2022-08-16T07:46:01.884Z,1.40
2022-08-16T07:48:31.626Z,1.17
2022-08-16T07:51:06.487Z,1.27
2022-08-16T07:53:43.889Z,1.90
2022-08-16T07:56:14.351Z,1.70
2022-08-16T07:58:44.008Z,1.50
2022-08-16T08:01:14.999Z,1.20
2022-08-16T08:03:49.177Z,1.20
2022-08-16T08:06:21.566Z,1.65
2022-08-16T08:08:57.620Z,1.50
2022-08-16T08:11:59.999Z,1.90
2022-08-16T08:14:30.961Z,1.75
2022-08-16T08:17:02.820Z,2.20
2022-08-16T08:19:32.158Z,1.50
2022-08-16T08:22:05.810Z,1.67
2022-08-16T08:24:37.621Z,1.65
2022-08-16T08:27:09.920Z,1.90
2022-08-16T08:29:42.779Z,1.63
2022-08-16T08:32:57.821Z,1.75
2022-08-16T08:35:04.268Z,1.58
2022-08-16T08:37:55.001Z,3.85
2022-08-16T08:40:27.649Z,1.60
2022-08-16T08:43:00.585Z,1.80
2022-08-16T08:45:53.261Z,2.40
2022-08-16T08:48:34.698Z,2.23
2022-08-16T08:51:08.897Z,2.50
2022-08-16T08:53:39.815Z,2.08
2022-08-16T08:56:22.877Z,2.55
2022-08-16T08:58:58.196Z,1.73
2022-08-16T09:01:36.977Z,2.15
2022-08-16T09:04:14.644Z,1.80
2022-08-16T09:06:47.674Z,1.50
2022-08-16T09:09:17.935Z,1.80
2022-08-16T09:11:53.636Z,1.67
2022-08-16T09:14:34.478Z,2.00
2022-08-16T09:17:11.789Z,1.90
2022-08-16T09:19:55.199Z,2.28
2022-08-16T09:22:27.874Z,2.47
2022-08-16T09:25:09.754Z,2.50
2022-08-16T09:27:57.383Z,4.57
2022-08-16T09:30:34.651Z,4.45
2022-08-16T09:33:09.780Z,3.00
2022-08-16T09:35:42.496Z,3.55
2022-08-16T09:38:31.386Z,3.72
2022-08-16T09:41:03.494Z,3.55
2022-08-16T09:43:57.953Z,5.13
2022-08-16T09:46:48.425Z,3.33
2022-08-16T09:49:15.729Z,3.35
2022-08-16T09:51:45.013Z,3.20
2022-08-16T09:54:16.992Z,2.78
2022-08-16T09:56:52.137Z,2.60
2022-08-16T09:59:23.615Z,2.33
2022-08-16T10:01:56.235Z,2.28
2022-08-16T10:04:30.915Z,2.20
2022-08-16T10:07:14.837Z,2.40
2022-08-16T10:09:54.548Z,2.33
2022-08-16T10:12:55.958Z,9.48
2022-08-16T10:15:30.453Z,4.60
2022-08-16T10:18:02.489Z,6.22
2022-08-16T10:20:51.204Z,4.15
2022-08-16T10:23:21.643Z,4.63
2022-08-16T10:27:18.899Z,3.10
2022-08-16T10:28:42.102Z,3.13
2022-08-16T10:31:16.769Z,2.28
2022-08-16T10:33:47.194Z,2.75
2022-08-16T10:36:37.826Z,2.63
2022-08-16T10:39:08.584Z,2.63
2022-08-16T10:41:38.066Z,2.50
2022-08-16T10:44:09.513Z,3.03
2022-08-16T10:46:42.215Z,3.45
2022-08-16T10:52:02.316Z,4.00
2022-08-16T10:54:58.715Z,4.00
2022-08-16T10:57:25.593Z,4.15
2022-08-16T11:00:05.511Z,4.30
2022-08-16T11:03:00.429Z,4.50
2022-08-16T11:08:35.191Z,4.25
2022-08-16T11:11:12.751Z,4.40
2022-08-16T11:13:59.290Z,4.38
2022-08-16T11:19:20.519Z,3.60
2022-08-16T11:24:45.041Z,2.67
2022-08-16T11:27:26.946Z,2.50
2022-08-16T11:30:09.169Z,2.65
2022-08-16T11:32:42.418Z,2.88
2022-08-16T11:35:18.322Z,2.13
2022-08-16T11:38:47.213Z,2.85
2022-08-16T11:41:01.657Z,2.55
2022-08-16T11:43:35.819Z,2.63
2022-08-16T11:46:42.880Z,2.90
2022-08-16T11:48:58.662Z,2.58
2022-08-16T11:51:27.910Z,2.30
2022-08-16T11:53:57.379Z,2.00
2022-08-16T11:56:39.700Z,2.28
2022-08-16T11:59:16.213Z,2.15
2022-08-16T12:01:59.298Z,2.38
2022-08-16T12:04:30.285Z,2.05
2022-08-16T12:07:00.098Z,2.17
2022-08-16T12:09:31.682Z,2.22
2022-08-16T12:12:02.944Z,2.65
2022-08-16T12:14:36.898Z,2.40
2022-08-16T12:17:09.868Z,2.22
2022-08-16T12:19:39.897Z,2.13
2022-08-16T12:22:19.454Z,2.28
2022-08-16T12:24:52.257Z,2.00
2022-08-16T12:27:24.411Z,1.73
2022-08-16T12:29:58.540Z,1.43
2022-08-16T12:32:39.375Z,1.23
2022-08-16T12:35:15.836Z,1.25
2022-08-16T12:37:47.218Z,1.25
2022-08-16T12:40:29.090Z,1.33
2022-08-16T12:43:01.198Z,1.00
2022-08-16T12:45:34.884Z,1.27
2022-08-16T12:48:34.098Z,2.58
2022-08-16T12:51:19.592Z,1.48
2022-08-16T12:53:53.264Z,1.10
2022-08-16T12:56:27.610Z,1.20
2022-08-16T12:58:58.457Z,1.80
2022-08-16T13:01:33.355Z,1.67
2022-08-16T13:04:12.444Z,2.05
2022-08-16T13:06:52.231Z,2.13
2022-08-16T13:09:26.866Z,1.73
2022-08-16T13:12:05.185Z,1.60
2022-08-16T13:14:39.411Z,1.80
2022-08-16T13:17:18.511Z,1.70
2022-08-16T13:22:45.054Z,1.98
2022-08-16T13:25:21.153Z,2.08
2022-08-16T13:28:15.230Z,3.78
2022-08-16T13:30:47.411Z,5.13
2022-08-16T13:33:24.866Z,7.90
2022-08-16T13:36:01.448Z,8.25
2022-08-16T13:38:37.136Z,7.10
2022-08-16T13:41:10.073Z,9.55
2022-08-16T13:43:40.432Z,12.40
2022-08-16T13:46:10.284Z,13.18
2022-08-16T13:48:44.410Z,12.75
2022-08-16T13:51:17.467Z,13.52
2022-08-16T13:53:54.676Z,11.23
2022-08-16T13:56:34.464Z,5.97
2022-08-16T13:59:19.892Z,4.63
2022-08-16T14:01:56.678Z,4.95
2022-08-16T14:04:34.062Z,7.60
2022-08-16T14:07:08.062Z,10.30
2022-08-16T14:09:38.673Z,9.50
2022-08-16T14:12:17.902Z,6.00
2022-08-16T14:14:48.227Z,4.85
2022-08-16T14:17:17.574Z,3.88
2022-08-16T14:19:47.453Z,2.55
2022-08-16T14:22:30.605Z,2.30
2022-08-16T14:25:03.027Z,1.90
2022-08-16T14:27:33.974Z,1.80
2022-08-16T14:30:03.739Z,1.67
2022-08-16T14:32:34.698Z,2.00
2022-08-16T14:35:08.211Z,1.70
2022-08-16T14:37:39.343Z,2.05
2022-08-16T14:40:17.292Z,1.63
2022-08-16T14:42:48.205Z,1.40
2022-08-16T14:45:22.549Z,1.30
2022-08-16T14:47:51.869Z,2.05
2022-08-16T14:50:25.210Z,1.80
2022-08-16T14:53:03.637Z,1.75
2022-08-16T14:55:35.051Z,2.10
2022-08-16T14:58:06.679Z,2.00
2022-08-16T15:00:50.361Z,1.98
2022-08-16T15:03:23.268Z,2.17
2022-08-16T15:05:53.844Z,2.13
2022-08-16T15:08:37.251Z,2.47
2022-08-16T15:11:09.748Z,2.10
2022-08-16T15:13:39.032Z,1.90
2022-08-16T15:16:08.922Z,2.10
2022-08-16T15:18:39.283Z,1.52
2022-08-16T15:21:08.878Z,1.40
2022-08-16T15:23:40.478Z,1.65
2022-08-16T15:26:29.700Z,1.60
2022-08-16T15:29:05.277Z,1.58
2022-08-16T15:31:40.127Z,1.52
2022-08-16T15:34:18.978Z,1.80
2022-08-16T15:36:51.391Z,2.17
2022-08-16T15:39:30.334Z,2.13
2022-08-16T15:42:11.235Z,2.78
2022-08-16T15:44:53.054Z,2.33
2022-08-16T15:47:27.247Z,2.50
2022-08-16T15:49:57.686Z,2.20
2022-08-16T15:52:33.050Z,2.35
2022-08-16T15:55:24.095Z,2.40
2022-08-16T15:57:57.112Z,2.08
2022-08-16T16:00:27.443Z,1.55
2022-08-16T16:03:09.360Z,1.17
2022-08-16T16:05:42.164Z,1.50
2022-08-16T16:08:14.252Z,1.25
2022-08-16T16:10:54.565Z,1.05
2022-08-16T16:13:24.955Z,0.73
2022-08-16T16:15:57.710Z,0.70
2022-08-16T16:18:28.590Z,0.63
2022-08-16T16:21:02.626Z,0.60
2022-08-16T16:23:36.057Z,0.43
2022-08-16T16:26:17.003Z,0.40
2022-08-16T16:29:08.510Z,0.60
2022-08-16T16:31:38.153Z,0.52
2022-08-16T16:34:09.957Z,0.57
2022-08-16T16:36:43.543Z,0.50
2022-08-16T16:39:17.971Z,0.80
2022-08-16T16:41:47.328Z,0.60
2022-08-16T16:44:18.119Z,0.98
2022-08-16T16:47:01.249Z,0.85
2022-08-16T16:49:30.516Z,0.63
2022-08-16T16:52:07.221Z,0.77
2022-08-16T16:54:37.323Z,0.77
2022-08-16T16:57:07.128Z,0.70
2022-08-16T17:03:29.317Z,0.80
2022-08-16T17:06:08.721Z,1.00
2022-08-16T17:08:41.055Z,1.00
2022-08-16T17:11:12.942Z,0.93
2022-08-16T17:13:44.971Z,0.98
2022-08-16T17:16:17.106Z,0.98
2022-08-16T17:19:15.247Z,2.28
2022-08-16T17:21:41.964Z,1.10
2022-08-16T17:24:17.474Z,1.40
2022-08-16T17:26:49.383Z,1.30
2022-08-16T17:29:30.883Z,1.00
2022-08-16T17:32:02.542Z,1.23
2022-08-16T17:34:52.072Z,1.23
2022-08-16T17:37:22.279Z,1.00
2022-08-16T17:40:19.257Z,1.63
2022-08-16T17:45:34.769Z,1.33
2022-08-16T17:48:04.064Z,1.10
2022-08-16T17:50:33.231Z,1.00
2022-08-16T17:53:03.093Z,1.13
2022-08-16T17:55:34.964Z,1.20
2022-08-16T17:58:09.851Z,1.20
2022-08-16T18:00:57.262Z,1.00
2022-08-16T18:04:02.865Z,1.02
2022-08-16T18:08:52.025Z,1.10
2022-08-16T18:11:27.327Z,2.00
2022-08-16T18:13:57.902Z,2.65
2022-08-16T18:16:27.130Z,1.60
2022-08-16T18:18:56.310Z,0.90
2022-08-16T18:21:45.585Z,0.70
2022-08-16T18:24:16.828Z,0.80
2022-08-16T18:26:46.478Z,0.80
2022-08-16T18:29:15.868Z,0.60
2022-08-16T18:31:45.549Z,0.60
2022-08-16T18:34:14.793Z,1.08
2022-08-16T18:36:44.008Z,0.88
2022-08-16T18:39:14.229Z,0.95
2022-08-16T18:41:43.454Z,1.02
2022-08-16T18:44:26.604Z,1.02
2022-08-16T18:46:57.585Z,0.98
2022-08-16T18:49:26.888Z,0.90
2022-08-16T18:52:00.878Z,0.85
2022-08-16T18:54:31.792Z,1.20
2022-08-16T18:57:05.842Z,1.08
2022-08-16T18:59:37.033Z,0.80
2022-08-16T19:02:06.417Z,0.77
2022-08-16T19:04:55.475Z,0.90
2022-08-16T19:07:30.767Z,0.93
2022-08-16T19:10:02.829Z,0.80
2022-08-16T19:12:37.714Z,1.13
2022-08-16T19:15:17.641Z,1.10
2022-08-16T19:17:48.712Z,1.10
2022-08-16T19:20:21.205Z,1.27
2022-08-16T19:23:10.626Z,1.05
2022-08-16T19:25:49.206Z,1.20
2022-08-16T19:28:51.319Z,1.50
2022-08-16T19:31:22.163Z,1.50
2022-08-16T19:33:56.940Z,1.70
2022-08-16T19:36:34.065Z,1.50
2022-08-16T19:39:08.980Z,1.60
2022-08-16T19:41:41.349Z,1.70
2022-08-16T19:44:11.015Z,1.17
2022-08-16T19:46:46.150Z,1.10
2022-08-16T19:49:16.300Z,1.60
2022-08-16T19:51:48.189Z,1.77
2022-08-16T19:54:17.748Z,1.90
2022-08-16T19:56:46.945Z,1.70
2022-08-16T19:59:19.994Z,1.65
2022-08-16T20:01:53.262Z,1.27
2022-08-16T20:04:23.663Z,1.40
2022-08-16T20:06:54.560Z,2.35
2022-08-16T20:09:24.797Z,13.45
2022-08-16T20:11:54.994Z,2.40
2022-08-16T20:14:26.552Z,3.00
2022-08-16T20:16:58.915Z,3.35
2022-08-16T20:19:33.406Z,3.97
2022-08-16T20:22:10.095Z,2.42
2022-08-16T20:24:39.359Z,3.60
2022-08-16T20:27:11.082Z,2.30
2022-08-16T20:29:42.903Z,1.80
2022-08-16T20:32:17.026Z,1.90
2022-08-16T20:34:51.538Z,1.63
2022-08-16T20:37:23.298Z,1.70
2022-08-16T20:40:28.114Z,1.88
2022-08-16T20:42:44.455Z,1.63
2022-08-16T20:45:14.297Z,1.90
2022-08-16T20:47:43.491Z,2.00
2022-08-16T20:50:12.710Z,1.92
2022-08-16T20:52:41.998Z,2.15
2022-08-16T20:55:11.519Z,2.08
2022-08-16T20:57:40.713Z,2.53
2022-08-16T21:00:13.563Z,2.67
2022-08-16T21:02:43.492Z,2.50
2022-08-16T21:05:15.321Z,2.97
2022-08-16T21:07:44.857Z,11.93
2022-08-16T21:10:14.359Z,3.70
2022-08-16T21:12:51.385Z,3.97
2022-08-16T21:15:22.028Z,3.92
2022-08-16T21:17:51.476Z,3.10
2022-08-16T21:20:23.427Z,3.53
2022-08-16T21:22:59.410Z,3.53
2022-08-16T21:25:30.090Z,2.90
2022-08-16T21:28:41.020Z,2.70
2022-08-16T21:30:50.223Z,2.47
2022-08-16T21:33:21.273Z,2.70
2022-08-16T21:35:52.946Z,2.72
2022-08-16T21:38:30.143Z,2.50
2022-08-16T21:41:01.518Z,3.33
2022-08-16T21:43:34.078Z,6.88
2022-08-16T21:46:04.694Z,6.90
2022-08-16T21:48:35.996Z,4.20
2022-08-16T21:51:08.815Z,6.95
2022-08-16T21:53:38.871Z,5.55
2022-08-16T21:56:09.811Z,5.45
2022-08-16T21:58:52.896Z,5.00
2022-08-16T22:01:26.266Z,5.75
2022-08-16T22:04:03.506Z,5.50
2022-08-16T22:06:45.730Z,5.90
2022-08-16T22:09:17.273Z,5.70
2022-08-16T22:11:46.598Z,5.03
2022-08-16T22:14:15.963Z,4.57
2022-08-16T22:16:45.391Z,4.20
2022-08-16T22:19:15.065Z,4.35
2022-08-16T22:21:44.314Z,3.50
2022-08-16T22:24:13.645Z,3.20
2022-08-16T22:26:43.684Z,3.63
2022-08-16T22:29:16.437Z,3.08
2022-08-16T22:31:46.784Z,3.15
2022-08-16T22:34:16.275Z,4.63
2022-08-16T22:36:45.529Z,3.88
2022-08-16T22:39:16.323Z,5.15
2022-08-16T22:41:46.997Z,12.55
2022-08-16T22:44:16.364Z,13.57
2022-08-16T22:46:46.346Z,8.65
2022-08-16T22:49:16.802Z,13.32
2022-08-16T22:51:46.131Z,11.65
2022-08-16T22:54:44.008Z,9.90
2022-08-16T22:57:06.815Z,7.65
2022-08-16T22:59:36.072Z,7.53
2022-08-16T23:02:08.373Z,7.72
2022-08-16T23:04:40.750Z,8.10
2022-08-16T23:07:09.953Z,7.30
2022-08-16T23:09:39.158Z,7.95
2022-08-16T23:12:08.915Z,10.65
2022-08-16T23:14:38.112Z,8.23
2022-08-16T23:17:07.493Z,7.25
2022-08-16T23:19:36.815Z,7.28
2022-08-16T23:22:06.059Z,6.88
2022-08-16T23:24:37.231Z,7.28
2022-08-16T23:27:24.681Z,7.72
2022-08-16T23:29:54.033Z,7.82
2022-08-16T23:32:23.214Z,7.53
2022-08-16T23:34:53.152Z,7.35
2022-08-16T23:37:23.688Z,8.32
2022-08-16T23:39:54.735Z,8.63
2022-08-16T23:42:53.029Z,10.27
2022-08-16T23:45:14.306Z,10.00
2022-08-16T23:47:43.572Z,9.73
2022-08-16T23:50:13.063Z,10.23
2022-08-16T23:53:01.396Z,13.38
2022-08-16T23:55:32.292Z,8.43
2022-08-16T23:58:01.798Z,6.93
